createdAt,value
2023-06-27T00:00:15.863Z,97955.06
2023-06-27T00:02:50.170Z,97941.56
2023-06-27T00:05:20.253Z,97925.56
2023-06-27T00:07:49.862Z,97947.75
2023-06-27T00:10:18.753Z,97930.56
2023-06-27T00:12:47.784Z,97874.63
2023-06-27T00:15:20.754Z,97946.91
2023-06-27T00:17:49.639Z,97921.91
2023-06-27T00:20:18.864Z,97907.63
2023-06-27T00:22:50.604Z,97926.59
2023-06-27T00:25:21.762Z,97922.28
2023-06-27T00:27:53.688Z,97907.28
2023-06-27T00:30:24.696Z,97895.66
2023-06-27T00:32:53.726Z,97905.66
2023-06-27T00:35:22.287Z,97893.50
2023-06-27T00:37:51.270Z,97910.50
2023-06-27T00:40:20.273Z,97935.31
2023-06-27T00:42:49.069Z,97914.81
2023-06-27T00:45:18.094Z,97923.59
2023-06-27T00:47:46.984Z,97925.94
2023-06-27T00:50:16.982Z,97924.19
2023-06-27T00:52:46.909Z,97917.50
2023-06-27T00:55:15.961Z,97894.19
2023-06-27T00:57:45.343Z,97912.13
2023-06-27T01:00:15.021Z,97883.59
2023-06-27T01:02:45.494Z,97911.75
2023-06-27T01:05:17.114Z,97851.28
2023-06-27T01:07:58.142Z,97897.91
2023-06-27T01:10:32.882Z,97909.59
2023-06-27T01:13:24.371Z,97893.72
2023-06-27T01:15:54.663Z,97891.13
2023-06-27T01:18:24.060Z,97885.50
2023-06-27T01:20:54.187Z,97889.28
2023-06-27T01:23:37.089Z,97866.84
2023-06-27T01:26:09.130Z,97874.81
2023-06-27T01:28:38.554Z,97868.63
2023-06-27T01:31:12.042Z,97863.97
2023-06-27T01:34:01.750Z,97891.22
2023-06-27T01:36:49.177Z,97875.84
2023-06-27T01:39:23.674Z,97865.66
2023-06-27T01:41:56.071Z,97862.91
2023-06-27T01:44:29.213Z,97857.94
2023-06-27T01:46:58.259Z,97846.19
2023-06-27T01:49:27.766Z,97841.91
2023-06-27T01:51:57.818Z,97858.91
2023-06-27T01:54:27.191Z,97859.66
2023-06-27T01:56:56.275Z,97806.84
2023-06-27T01:59:25.564Z,97847.41
2023-06-27T02:01:54.768Z,97837.00
2023-06-27T02:04:23.895Z,97825.47
2023-06-27T02:06:53.216Z,97837.47
2023-06-27T02:09:22.149Z,97838.56
2023-06-27T02:11:51.285Z,97839.94
2023-06-27T02:14:20.693Z,97829.16
2023-06-27T02:16:49.593Z,97768.88
2023-06-27T02:19:20.586Z,97820.38
2023-06-27T02:21:50.597Z,97839.72
2023-06-27T02:24:21.190Z,97810.19
2023-06-27T02:26:49.940Z,97825.06
2023-06-27T02:29:19.467Z,97789.38
2023-06-27T02:31:48.499Z,97817.81
2023-06-27T02:34:21.095Z,97819.44
2023-06-27T02:36:50.483Z,97796.53
2023-06-27T02:39:19.572Z,97787.56
2023-06-27T02:41:48.479Z,97788.84
2023-06-27T02:44:17.126Z,97802.53
2023-06-27T02:46:46.514Z,97791.78
2023-06-27T02:49:15.469Z,97789.53
2023-06-27T02:51:44.561Z,97780.38
2023-06-27T02:54:13.803Z,97783.22
2023-06-27T02:56:42.995Z,97757.03
2023-06-27T02:59:12.267Z,97772.84
2023-06-27T03:01:41.520Z,97774.59
2023-06-27T03:04:19.486Z,97769.47
2023-06-27T03:06:51.906Z,97785.28
2023-06-27T03:09:21.490Z,97739.03
2023-06-27T03:11:50.497Z,97771.09
2023-06-27T03:14:24.279Z,97773.31
2023-06-27T03:16:56.613Z,97775.91
2023-06-27T03:19:42.180Z,97769.91
2023-06-27T03:22:13.950Z,97756.28
2023-06-27T03:24:43.094Z,97770.34
2023-06-27T03:27:11.760Z,97769.56
2023-06-27T03:29:43.340Z,97767.50
2023-06-27T03:32:14.584Z,97769.78
2023-06-27T03:34:44.006Z,97780.19
2023-06-27T03:37:13.815Z,97779.13
2023-06-27T03:39:42.980Z,97757.00
2023-06-27T03:42:11.919Z,97749.16
2023-06-27T03:44:41.405Z,97750.19
2023-06-27T03:47:10.407Z,97743.97
2023-06-27T03:49:39.813Z,97745.25
2023-06-27T03:52:09.630Z,97753.50
2023-06-27T03:54:41.712Z,97760.09
2023-06-27T03:57:11.055Z,97749.72
2023-06-27T03:59:41.386Z,97757.59
2023-06-27T04:02:12.530Z,97733.44
2023-06-27T04:04:41.661Z,97739.06
2023-06-27T04:07:10.891Z,97739.03
2023-06-27T04:09:39.994Z,97737.34
2023-06-27T04:12:10.536Z,97733.38
2023-06-27T04:14:39.425Z,97728.31
2023-06-27T04:17:09.004Z,97724.31
2023-06-27T04:19:37.895Z,97728.88
2023-06-27T04:22:07.065Z,97730.94
2023-06-27T04:24:36.738Z,97722.59
2023-06-27T04:27:06.629Z,97729.06
2023-06-27T04:29:35.664Z,97724.53
2023-06-27T04:32:05.783Z,97703.47
2023-06-27T04:34:37.834Z,97738.19
2023-06-27T04:37:07.458Z,97724.97
2023-06-27T04:39:36.626Z,97720.03
2023-06-27T04:42:06.014Z,97716.91
2023-06-27T04:44:34.900Z,97705.09
2023-06-27T04:47:03.434Z,97704.16
2023-06-27T04:49:33.870Z,97683.97
2023-06-27T04:52:03.267Z,97713.84
2023-06-27T04:54:32.323Z,97700.59
2023-06-27T04:57:12.122Z,97701.31
2023-06-27T04:59:42.284Z,97685.44
2023-06-27T05:02:11.216Z,97696.19
2023-06-27T05:04:42.932Z,97675.25
2023-06-27T05:07:11.651Z,97676.44
2023-06-27T05:09:40.692Z,97696.78
2023-06-27T05:12:09.896Z,97691.25
2023-06-27T05:14:40.867Z,97680.16
2023-06-27T05:17:09.900Z,97684.16
2023-06-27T05:19:38.847Z,97691.75
2023-06-27T05:22:07.876Z,97650.34
2023-06-27T05:24:36.566Z,97691.66
2023-06-27T05:27:05.791Z,97631.81
2023-06-27T05:29:34.689Z,97675.00
2023-06-27T05:32:03.775Z,97666.53
2023-06-27T05:34:32.531Z,97651.72
2023-06-27T05:37:01.485Z,97671.75
2023-06-27T05:39:30.361Z,97617.88
2023-06-27T05:41:59.065Z,97640.53
2023-06-27T05:44:27.976Z,97642.59
2023-06-27T05:46:57.074Z,97627.34
2023-06-27T05:49:28.243Z,97628.50
2023-06-27T05:51:56.873Z,97620.03
2023-06-27T05:54:25.872Z,97611.06
2023-06-27T05:56:54.782Z,97564.88
2023-06-27T05:59:23.677Z,97607.94
2023-06-27T06:01:52.840Z,97612.09
2023-06-27T06:04:22.198Z,97612.16
2023-06-27T06:06:51.472Z,97587.06
2023-06-27T06:09:20.335Z,97552.84
2023-06-27T06:11:49.772Z,97573.97
2023-06-27T06:14:19.444Z,97576.31
2023-06-27T06:16:48.400Z,97574.47
2023-06-27T06:19:17.905Z,97553.69
2023-06-27T06:21:46.720Z,97562.00
2023-06-27T06:24:18.673Z,97571.56
2023-06-27T06:26:47.335Z,97568.34
2023-06-27T06:29:16.393Z,97564.06
2023-06-27T06:31:46.386Z,97558.13
2023-06-27T06:34:15.377Z,97509.66
2023-06-27T06:36:44.736Z,97559.56
2023-06-27T06:39:14.059Z,97548.41
2023-06-27T06:41:42.945Z,97539.13
2023-06-27T06:44:13.557Z,97543.31
2023-06-27T06:46:45.798Z,97555.75
2023-06-27T06:49:14.643Z,97547.16
2023-06-27T06:51:43.571Z,97503.50
2023-06-27T06:54:12.549Z,97549.28
2023-06-27T06:56:41.284Z,97529.69
2023-06-27T06:59:11.914Z,97537.16
2023-06-27T07:01:41.174Z,97530.97
2023-06-27T07:04:10.663Z,97528.69
2023-06-27T07:06:39.754Z,97509.66
2023-06-27T07:09:08.694Z,97538.63
2023-06-27T07:11:37.843Z,97552.22
2023-06-27T07:14:06.724Z,97498.38
2023-06-27T07:16:35.777Z,97537.75
2023-06-27T07:19:05.131Z,97563.34
2023-06-27T07:21:34.889Z,97584.38
2023-06-27T07:24:03.939Z,97560.41
2023-06-27T07:26:33.030Z,97552.06
2023-06-27T07:29:02.277Z,97550.72
2023-06-27T07:31:31.501Z,97552.72
2023-06-27T07:34:00.601Z,97499.88
2023-06-27T07:36:29.922Z,97553.56
2023-06-27T07:39:02.414Z,97579.88
2023-06-27T07:41:31.995Z,97574.84
2023-06-27T07:44:01.121Z,97575.41
2023-06-27T07:46:30.040Z,97605.06
2023-06-27T07:49:02.162Z,97577.47
2023-06-27T07:51:33.179Z,97570.59
2023-06-27T07:54:04.788Z,97544.16
2023-06-27T07:56:33.756Z,97597.63
2023-06-27T07:59:03.134Z,97602.00
2023-06-27T08:01:32.342Z,97540.06
2023-06-27T08:04:01.210Z,97555.84
2023-06-27T08:06:30.455Z,97583.13
2023-06-27T08:08:59.575Z,97556.41
2023-06-27T08:11:29.575Z,97576.41
2023-06-27T08:13:58.598Z,97574.38
2023-06-27T08:16:27.577Z,97567.09
2023-06-27T08:18:56.619Z,97540.72
2023-06-27T08:21:25.748Z,97583.03
2023-06-27T08:23:54.706Z,97582.78
2023-06-27T08:28:52.278Z,97591.56
2023-06-27T08:31:21.426Z,97622.81
2023-06-27T08:33:50.498Z,97600.78
2023-06-27T08:36:19.554Z,97607.81
2023-06-27T08:38:48.814Z,97605.03
2023-06-27T08:41:18.930Z,97603.25
2023-06-27T08:43:48.404Z,97601.94
2023-06-27T08:46:22.522Z,97600.78
2023-06-27T08:48:55.596Z,97616.38
2023-06-27T08:51:27.614Z,97607.41
2023-06-27T08:54:06.259Z,97611.81
2023-06-27T08:56:35.364Z,97598.94
2023-06-27T08:59:12.248Z,97625.19
2023-06-27T09:01:43.061Z,97610.41
2023-06-27T09:04:12.382Z,97602.50
2023-06-27T09:06:42.519Z,97614.16
2023-06-27T09:09:14.602Z,97624.78
2023-06-27T09:11:46.096Z,97639.03
2023-06-27T09:14:15.407Z,97629.38
2023-06-27T09:16:45.596Z,97618.59
2023-06-27T09:19:15.264Z,97621.19
2023-06-27T09:21:47.384Z,97620.16
2023-06-27T09:24:16.549Z,97624.25
2023-06-27T09:26:45.484Z,97610.56
2023-06-27T09:29:14.665Z,97626.34
2023-06-27T09:31:43.850Z,97624.78
2023-06-27T09:34:12.884Z,97623.69
2023-06-27T09:39:15.136Z,97593.72
2023-06-27T09:41:49.983Z,97611.56
2023-06-27T09:44:27.336Z,97599.47
2023-06-27T09:46:56.806Z,97598.78
2023-06-27T09:49:30.945Z,97608.66
2023-06-27T09:51:59.968Z,97621.59
2023-06-27T09:54:29.032Z,97631.78
2023-06-27T09:57:01.505Z,97613.66
2023-06-27T09:59:32.425Z,97582.38
2023-06-27T10:02:02.546Z,97639.28
2023-06-27T10:04:39.821Z,97615.69
2023-06-27T10:07:15.214Z,97626.00
2023-06-27T10:09:45.089Z,97628.72
2023-06-27T10:12:16.283Z,97627.03
2023-06-27T10:14:49.244Z,97605.19
2023-06-27T10:17:21.155Z,97610.25
2023-06-27T10:19:51.618Z,97617.13
2023-06-27T10:22:23.408Z,97619.69
2023-06-27T10:24:58.824Z,97584.06
2023-06-27T10:27:28.340Z,97618.47
2023-06-27T10:29:57.439Z,97594.03
2023-06-27T10:32:41.460Z,97629.38
2023-06-27T10:35:30.496Z,97617.41
2023-06-27T10:38:17.279Z,97609.31
2023-06-27T10:41:08.690Z,97610.59
2023-06-27T10:43:38.705Z,97607.72
2023-06-27T10:46:09.680Z,97608.09
2023-06-27T10:49:12.499Z,97614.31
2023-06-27T10:51:46.273Z,97601.16
2023-06-27T10:54:17.836Z,97631.78
2023-06-27T10:57:00.198Z,97633.47
2023-06-27T10:59:29.244Z,97611.81
2023-06-27T11:02:04.626Z,97635.56
2023-06-27T11:04:52.042Z,97622.00
2023-06-27T11:07:21.013Z,97598.06
2023-06-27T11:09:57.070Z,97594.34
2023-06-27T11:12:35.098Z,97584.88
2023-06-27T11:15:04.617Z,97602.44
2023-06-27T11:17:37.639Z,97604.31
2023-06-27T11:20:10.053Z,97594.22
2023-06-27T11:22:39.525Z,97598.13
2023-06-27T11:25:16.866Z,97604.75
2023-06-27T11:27:45.885Z,97606.00
2023-06-27T11:30:17.949Z,97608.06
2023-06-27T11:32:47.464Z,97600.22
2023-06-27T11:35:17.085Z,97596.50
2023-06-27T11:37:46.142Z,97588.41
2023-06-27T11:40:18.892Z,97598.53
2023-06-27T11:42:47.960Z,97620.44
2023-06-27T11:45:17.379Z,97601.44
2023-06-27T11:47:48.220Z,97612.97
2023-06-27T11:50:23.003Z,97604.25
2023-06-27T11:52:52.539Z,97616.22
2023-06-27T11:55:21.922Z,97592.22
2023-06-27T11:57:57.641Z,97599.63
2023-06-27T12:00:30.663Z,97581.44
2023-06-27T12:03:08.353Z,97595.47
2023-06-27T12:05:37.359Z,97568.19
2023-06-27T12:08:08.252Z,97606.59
2023-06-27T12:10:53.220Z,97605.53
2023-06-27T12:13:22.283Z,97609.47
2023-06-27T12:15:51.524Z,97619.78
2023-06-27T12:18:32.651Z,97618.38
2023-06-27T12:21:02.580Z,97625.59
2023-06-27T12:23:32.581Z,97621.47
2023-06-27T12:26:01.820Z,97619.59
2023-06-27T12:28:34.069Z,97623.78
2023-06-27T12:31:03.261Z,97627.25
2023-06-27T12:33:32.299Z,97613.38
2023-06-27T12:36:01.398Z,97573.88
2023-06-27T12:38:30.541Z,97618.31
2023-06-27T12:40:59.703Z,97632.34
2023-06-27T12:43:28.682Z,97630.41
2023-06-27T12:46:05.107Z,97624.19
2023-06-27T12:48:35.194Z,97575.09
2023-06-27T12:51:04.973Z,97594.50
2023-06-27T12:53:34.221Z,97632.94
2023-06-27T12:56:06.588Z,97632.47
2023-06-27T12:58:37.021Z,97649.38
2023-06-27T13:01:06.666Z,97634.75
2023-06-27T13:03:38.755Z,97640.94
2023-06-27T13:06:07.575Z,97628.47
2023-06-27T13:08:36.614Z,97646.44
2023-06-27T13:11:11.157Z,97618.78
2023-06-27T13:13:40.977Z,97617.66
2023-06-27T13:16:16.035Z,97648.72
2023-06-27T13:18:47.860Z,97623.69
2023-06-27T13:21:16.984Z,97556.31
2023-06-27T13:23:50.667Z,97569.91
2023-06-27T13:26:20.095Z,97597.50
2023-06-27T13:28:49.358Z,97600.97
2023-06-27T13:31:18.580Z,97631.28
2023-06-27T13:33:47.919Z,97662.03
2023-06-27T13:36:17.755Z,97665.66
2023-06-27T13:38:47.723Z,97674.31
2023-06-27T13:41:17.967Z,97653.22
2023-06-27T13:43:47.028Z,97670.25
2023-06-27T13:46:16.557Z,97652.47
2023-06-27T13:48:46.737Z,97551.16
2023-06-27T13:51:15.656Z,97639.41
2023-06-27T13:53:44.996Z,97641.03
2023-06-27T13:56:14.156Z,97623.56
2023-06-27T13:58:43.873Z,97621.81
2023-06-27T14:01:13.078Z,97635.31
2023-06-27T14:03:42.637Z,97641.22
2023-06-27T14:06:12.009Z,97605.75
2023-06-27T14:08:44.262Z,97579.97
2023-06-27T14:11:15.960Z,97652.88
2023-06-27T14:13:47.050Z,97672.13
2023-06-27T14:16:16.275Z,97681.16
2023-06-27T14:18:45.337Z,97671.38
2023-06-27T14:21:15.060Z,97656.81
2023-06-27T14:23:44.480Z,97658.06
2023-06-27T14:26:13.841Z,97650.47
2023-06-27T14:28:43.209Z,97645.50
2023-06-27T14:31:13.187Z,97654.72
2023-06-27T14:33:42.556Z,97659.03
2023-06-27T14:36:17.166Z,97672.66
2023-06-27T14:39:00.183Z,97682.56
2023-06-27T14:41:29.199Z,97661.69
2023-06-27T14:43:58.345Z,97684.00
2023-06-27T14:46:27.329Z,97704.22
2023-06-27T14:48:56.759Z,97679.72
2023-06-27T14:51:25.719Z,97694.34
2023-06-27T14:53:54.829Z,97703.56
2023-06-27T14:56:24.345Z,97656.16
2023-06-27T14:58:53.370Z,97701.06
2023-06-27T15:01:26.809Z,97645.09
2023-06-27T15:03:56.476Z,97694.31
2023-06-27T15:06:25.495Z,97704.28
2023-06-27T15:08:56.131Z,97685.53
2023-06-27T15:11:26.104Z,97701.31
2023-06-27T15:13:55.321Z,97692.31
2023-06-27T15:16:24.146Z,97673.38
2023-06-27T15:18:53.250Z,97691.97
2023-06-27T15:21:22.566Z,97669.69
2023-06-27T15:23:51.549Z,97666.88
2023-06-27T15:26:21.149Z,97680.53
2023-06-27T15:28:50.347Z,97670.41
2023-06-27T15:31:19.776Z,97667.88
2023-06-27T15:33:49.176Z,97662.72
2023-06-27T15:36:18.599Z,97672.88
2023-06-27T15:38:49.025Z,97667.38
2023-06-27T15:41:18.292Z,97671.03
2023-06-27T15:43:48.228Z,97638.44
2023-06-27T15:46:17.790Z,97668.03
2023-06-27T15:48:47.355Z,97661.72
2023-06-27T15:51:16.748Z,97648.91
2023-06-27T15:53:46.032Z,97662.22
2023-06-27T15:56:15.698Z,97654.75
2023-06-27T15:58:44.970Z,97675.88
2023-06-27T16:01:13.954Z,97679.38
2023-06-27T16:03:43.373Z,97675.69
2023-06-27T16:06:15.562Z,97661.78
2023-06-27T16:08:44.770Z,97669.25
2023-06-27T16:11:14.399Z,97675.03
2023-06-27T16:13:44.068Z,97671.56
2023-06-27T16:16:13.788Z,97684.38
2023-06-27T16:18:42.852Z,97628.91
2023-06-27T16:21:12.214Z,97692.69
2023-06-27T16:23:41.186Z,97673.44
2023-06-27T16:26:10.916Z,97703.69
2023-06-27T16:28:40.402Z,97681.78
2023-06-27T16:31:09.625Z,97703.38
2023-06-27T16:33:39.198Z,97690.75
2023-06-27T16:36:10.327Z,97614.34
2023-06-27T16:38:40.648Z,97672.97
2023-06-27T16:41:10.025Z,97689.28
2023-06-27T16:43:39.511Z,97682.97
2023-06-27T16:46:08.496Z,97693.75
2023-06-27T16:48:37.954Z,97688.78
2023-06-27T16:51:06.852Z,97668.50
2023-06-27T16:53:36.231Z,97668.16
2023-06-27T16:56:05.842Z,97688.13
2023-06-27T16:58:36.525Z,97668.19
2023-06-27T17:01:05.477Z,97664.50
2023-06-27T17:03:34.904Z,97622.34
2023-06-27T17:06:03.962Z,97649.56
2023-06-27T17:08:32.929Z,97684.47
2023-06-27T17:11:01.932Z,97661.38
2023-06-27T17:13:30.931Z,97676.16
2023-06-27T17:16:01.151Z,97681.47
2023-06-27T17:18:30.489Z,97688.78
2023-06-27T17:20:59.751Z,97666.53
2023-06-27T17:23:28.808Z,97652.91
2023-06-27T17:25:57.647Z,97681.81
2023-06-27T17:28:26.767Z,97671.00
2023-06-27T17:30:55.765Z,97638.94
2023-06-27T17:33:25.312Z,97660.19
2023-06-27T17:35:54.027Z,97665.72
2023-06-27T17:38:23.065Z,97663.53
2023-06-27T17:40:52.440Z,97619.66
2023-06-27T17:43:21.772Z,97683.47
2023-06-27T17:45:51.339Z,97625.00
2023-06-27T17:48:20.202Z,97688.78
2023-06-27T17:50:49.153Z,97694.44
2023-06-27T17:53:18.085Z,97687.63
2023-06-27T17:55:47.308Z,97627.47
2023-06-27T17:58:16.225Z,97675.13
2023-06-27T18:00:45.788Z,97663.16
2023-06-27T18:03:14.972Z,97670.31
2023-06-27T18:05:43.737Z,97670.31
2023-06-27T18:08:22.316Z,97680.13
2023-06-27T18:10:51.656Z,97660.50
2023-06-27T18:13:20.685Z,97653.03
2023-06-27T18:15:51.946Z,97675.78
2023-06-27T18:18:21.884Z,97676.47
2023-06-27T18:20:51.028Z,97656.50
2023-06-27T18:23:19.944Z,97661.16
2023-06-27T18:25:48.642Z,97639.06
2023-06-27T18:28:18.752Z,97650.22
2023-06-27T18:30:48.178Z,97690.41
2023-06-27T18:33:17.007Z,97667.16
2023-06-27T18:35:45.986Z,97658.03
2023-06-27T18:38:14.883Z,97686.78
2023-06-27T18:40:43.951Z,97622.31
2023-06-27T18:43:13.504Z,97677.13
2023-06-27T18:45:42.317Z,97680.78
2023-06-27T18:48:11.502Z,97679.16
2023-06-27T18:50:40.673Z,97681.47
2023-06-27T18:53:09.849Z,97668.16
2023-06-27T18:55:38.799Z,97670.50
2023-06-27T18:58:07.625Z,97671.66
2023-06-27T19:00:36.567Z,97658.88
2023-06-27T19:03:05.391Z,97665.19
2023-06-27T19:05:37.798Z,97675.66
2023-06-27T19:08:14.477Z,97663.53
2023-06-27T19:10:44.479Z,97673.81
2023-06-27T19:13:13.947Z,97605.38
2023-06-27T19:15:42.768Z,97655.19
2023-06-27T19:18:11.583Z,97656.19
2023-06-27T19:20:41.006Z,97624.28
2023-06-27T19:23:11.166Z,97660.84
2023-06-27T19:25:40.147Z,97647.03
2023-06-27T19:28:09.034Z,97665.63
2023-06-27T19:30:37.931Z,97636.09
2023-06-27T19:33:06.704Z,97655.03
2023-06-27T19:35:36.548Z,97666.50
2023-06-27T19:38:06.642Z,97652.88
2023-06-27T19:40:37.105Z,97654.38
2023-06-27T19:43:06.506Z,97646.72
2023-06-27T19:45:36.323Z,97671.31
2023-06-27T19:48:08.571Z,97658.84
2023-06-27T19:50:37.547Z,97663.00
2023-06-27T19:53:06.558Z,97664.53
2023-06-27T19:55:35.475Z,97664.66
2023-06-27T19:58:04.366Z,97637.91
2023-06-27T20:00:33.169Z,97599.06
2023-06-27T20:03:02.705Z,97621.66
2023-06-27T20:05:32.488Z,97628.31
2023-06-27T20:08:01.285Z,97647.56
2023-06-27T20:10:30.249Z,97658.03
2023-06-27T20:12:59.965Z,97657.56
2023-06-27T20:15:28.869Z,97667.16
2023-06-27T20:17:58.447Z,97628.00
2023-06-27T20:20:28.689Z,97644.25
2023-06-27T20:22:57.588Z,97645.91
2023-06-27T20:25:26.345Z,97644.25
2023-06-27T20:27:55.227Z,97651.41
2023-06-27T20:30:24.230Z,97646.91
2023-06-27T20:32:53.404Z,97659.88
2023-06-27T20:35:23.048Z,97637.44
2023-06-27T20:37:51.792Z,97658.22
2023-06-27T20:40:20.852Z,97650.06
2023-06-27T20:42:49.764Z,97653.53
2023-06-27T20:45:18.525Z,97654.06
2023-06-27T20:47:47.518Z,97650.88
2023-06-27T20:50:16.612Z,97632.78
2023-06-27T20:52:45.784Z,97648.56
2023-06-27T20:55:14.564Z,97653.72
2023-06-27T20:57:43.468Z,97669.50
2023-06-27T21:00:13.140Z,97660.84
2023-06-27T21:02:42.045Z,97666.19
2023-06-27T21:05:11.198Z,97659.69
2023-06-27T21:07:40.033Z,97652.69
2023-06-27T21:10:09.201Z,97639.06
2023-06-27T21:12:38.545Z,97659.16
2023-06-27T21:15:09.238Z,97627.63
2023-06-27T21:17:38.117Z,97656.34
2023-06-27T21:20:07.480Z,97656.66
2023-06-27T21:22:36.460Z,97648.84
2023-06-27T21:25:05.570Z,97644.53
2023-06-27T21:27:50.087Z,97644.06
2023-06-27T21:30:20.414Z,97673.47
2023-06-27T21:32:49.321Z,97663.63
2023-06-27T21:35:18.277Z,97644.38
2023-06-27T21:37:47.506Z,97658.00
2023-06-27T21:40:16.571Z,97676.75
2023-06-27T21:42:45.545Z,97607.66
2023-06-27T21:45:14.332Z,97673.75
2023-06-27T21:47:43.453Z,97653.50
2023-06-27T21:50:12.201Z,97660.63
2023-06-27T21:52:41.031Z,97667.28
2023-06-27T21:55:10.105Z,97654.81
2023-06-27T21:57:38.939Z,97658.66
2023-06-27T22:00:11.027Z,97653.81
2023-06-27T22:02:39.650Z,97649.13
2023-06-27T22:05:09.615Z,97661.25
2023-06-27T22:07:39.348Z,97646.47
2023-06-27T22:10:09.985Z,97652.63
2023-06-27T22:12:39.230Z,97636.03
2023-06-27T22:15:10.171Z,97599.00
2023-06-27T22:17:39.779Z,97651.81
2023-06-27T22:20:12.513Z,97645.50
2023-06-27T22:22:41.329Z,97644.50
2023-06-27T22:25:10.311Z,97646.34
2023-06-27T22:27:39.067Z,97651.63
2023-06-27T22:30:08.478Z,97641.50
2023-06-27T22:32:37.377Z,97608.94
2023-06-27T22:35:06.743Z,97587.19
2023-06-27T22:37:35.468Z,97648.28
2023-06-27T22:40:04.687Z,97645.81
2023-06-27T22:42:35.786Z,97623.91
2023-06-27T22:45:05.930Z,97635.19
2023-06-27T22:47:36.817Z,97665.44
2023-06-27T22:50:05.953Z,97643.00
2023-06-27T22:52:34.767Z,97658.94
2023-06-27T22:55:04.015Z,97665.44
2023-06-27T22:57:32.822Z,97629.84
2023-06-27T23:00:01.710Z,97654.94
2023-06-27T23:02:30.509Z,97653.47
2023-06-27T23:04:59.763Z,97649.28
2023-06-27T23:07:28.770Z,97649.28
2023-06-27T23:09:57.477Z,97652.81
2023-06-27T23:12:29.628Z,97640.34
2023-06-27T23:14:58.491Z,97681.03
2023-06-27T23:17:27.377Z,97670.75
2023-06-27T23:19:56.127Z,97676.28
2023-06-27T23:22:25.090Z,97662.16
2023-06-27T23:24:53.887Z,97616.31
2023-06-27T23:27:25.683Z,97665.81
2023-06-27T23:29:54.554Z,97673.47
2023-06-27T23:32:31.754Z,97691.44
2023-06-27T23:35:01.669Z,97678.31
2023-06-27T23:37:31.150Z,97683.63
2023-06-27T23:39:59.984Z,97706.03
2023-06-27T23:42:28.794Z,97694.41
2023-06-27T23:44:57.596Z,97686.44
2023-06-27T23:47:27.219Z,97591.44
2023-06-27T23:49:56.694Z,97703.06
2023-06-27T23:52:25.550Z,97701.41
2023-06-27T23:54:57.163Z,97703.06
2023-06-27T23:57:26.103Z,97710.22
2023-06-27T23:59:54.763Z,97703.44
